Time;durP1;ratioP1;P1;durP2;ratioP2;P2;SDS_P1;SDS_P2;PMS_P1;PMS_P2;Temp;Humidity;BMP_temperature;BMP_pressure;BME280_temperature;BME280_humidity;BME280_pressure;Samples;Min_cycle;Max_cycle;Signal;HPM_P1;HPM_P2
2022/08/31 00:04:04;;;;;;;0.52;0.17;;;16.60;99.90;;;;;;5024835;28;20049;-76
2022/08/31 00:06:35;;;;;;;1.95;0.20;;;16.60;99.90;;;;;;5025806;28;20049;-77
2022/08/31 00:09:03;;;;;;;0.50;0.20;;;16.60;99.90;;;;;;5028123;28;20037;-76
2022/08/31 00:11:29;;;;;;;0.65;0.25;;;16.60;99.90;;;;;;5024360;28;20032;-76
2022/08/31 00:14:04;;;;;;;0.75;0.20;;;16.50;99.90;;;;;;5024733;28;20044;-76
2022/08/31 00:16:33;;;;;;;0.60;0.20;;;16.40;99.90;;;;;;5020693;28;20033;-76
2022/08/31 00:18:59;;;;;;;0.95;0.30;;;16.40;99.90;;;;;;5023077;28;20033;-76
2022/08/31 00:21:25;;;;;;;0.50;0.20;;;16.50;99.90;;;;;;5024497;28;20048;-76
2022/08/31 00:23:52;;;;;;;0.60;0.20;;;16.40;99.90;;;;;;5024239;28;20110;-77
2022/08/31 00:26:19;;;;;;;1.77;0.30;;;16.40;99.90;;;;;;5025426;28;20026;-77
2022/08/31 00:28:45;;;;;;;0.40;0.10;;;16.40;99.90;;;;;;5017176;28;20037;-77
2022/08/31 00:31:13;;;;;;;0.88;0.20;;;16.30;99.90;;;;;;5007246;28;20098;-76
2022/08/31 00:33:39;;;;;;;0.52;0.20;;;16.30;99.90;;;;;;5019563;28;20037;-76
2022/08/31 00:36:08;;;;;;;0.50;0.20;;;16.30;99.90;;;;;;5023816;28;20027;-77
2022/08/31 00:38:35;;;;;;;0.80;0.20;;;16.30;99.90;;;;;;5024630;28;20433;-77
2022/08/31 00:41:00;;;;;;;1.40;0.30;;;16.30;99.90;;;;;;5020850;28;20124;-76
2022/08/31 00:43:42;;;;;;;1.02;0.30;;;16.30;99.90;;;;;;5008369;28;20120;-77
2022/08/31 00:46:10;;;;;;;1.35;0.30;;;16.30;99.90;;;;;;5025453;28;20028;-77
2022/08/31 00:48:42;;;;;;;1.50;0.20;;;16.30;99.90;;;;;;5024917;28;20037;-76
2022/08/31 00:51:08;;;;;;;0.70;0.20;;;16.20;99.90;;;;;;5024829;28;20044;-78
2022/08/31 00:53:36;;;;;;;0.65;0.20;;;16.10;99.90;;;;;;5007284;28;20029;-76
2022/08/31 00:56:03;;;;;;;0.73;0.30;;;16.10;99.90;;;;;;5005547;28;20029;-76
2022/08/31 00:58:28;;;;;;;0.95;0.30;;;16.20;99.90;;;;;;5022770;28;20036;-76
2022/08/31 01:00:54;;;;;;;0.47;0.20;;;16.20;99.90;;;;;;5024437;28;20018;-77
2022/08/31 01:03:21;;;;;;;0.77;0.30;;;16.10;99.90;;;;;;5007573;28;20647;-77
2022/08/31 01:05:48;;;;;;;0.63;0.20;;;16.00;99.90;;;;;;4992430;28;20026;-78
2022/08/31 01:08:14;;;;;;;2.33;0.30;;;16.00;99.90;;;;;;5025308;28;20482;-77
2022/08/31 01:10:42;;;;;;;0.70;0.20;;;15.90;99.90;;;;;;5024118;28;20507;-78
2022/08/31 01:13:11;;;;;;;0.80;0.20;;;15.90;99.90;;;;;;5001068;28;20071;-78
2022/08/31 01:15:41;;;;;;;0.70;0.30;;;15.90;99.90;;;;;;5024352;28;20045;-77
2022/08/31 01:18:07;;;;;;;1.25;0.28;;;15.90;99.90;;;;;;5005704;28;20457;-77
2022/08/31 01:21:13;;;;;;;1.23;0.40;;;15.80;99.90;;;;;;5016442;28;20037;-77
2022/08/31 01:23:41;;;;;;;0.73;0.22;;;15.80;99.90;;;;;;5005977;28;20368;-76
2022/08/31 01:26:08;;;;;;;1.40;0.20;;;15.80;99.90;;;;;;5010102;28;20519;-76
2022/08/31 01:28:34;;;;;;;1.13;0.40;;;15.70;99.90;;;;;;5022785;28;20516;-77
2022/08/31 01:31:14;;;;;;;0.60;0.20;;;15.70;99.90;;;;;;5005361;28;20025;-76
2022/08/31 01:33:40;;;;;;;0.73;0.30;;;15.60;99.90;;;;;;5023979;28;20053;-76
2022/08/31 01:36:08;;;;;;;0.93;0.20;;;15.60;99.90;;;;;;5039863;28;20470;-77
2022/08/31 01:38:34;;;;;;;0.70;0.20;;;15.60;99.90;;;;;;5005236;28;20099;-77
2022/08/31 01:41:01;;;;;;;0.45;0.20;;;15.60;99.90;;;;;;5022473;28;20512;-77
2022/08/31 01:43:27;;;;;;;0.77;0.30;;;15.50;99.90;;;;;;5017162;28;20386;-76
2022/08/31 01:45:54;;;;;;;0.60;0.20;;;15.50;99.90;;;;;;5021607;28;20029;-76
2022/08/31 01:48:21;;;;;;;0.80;0.20;;;15.50;99.90;;;;;;5005272;28;20136;-78
2022/08/31 01:50:47;;;;;;;0.60;0.20;;;15.50;99.90;;;;;;5023954;28;20055;-77
2022/08/31 01:53:14;;;;;;;0.60;0.20;;;15.40;99.90;;;;;;5005067;28;20022;-76
2022/08/31 01:55:40;;;;;;;0.65;0.20;;;15.40;99.90;;;;;;5000418;28;20033;-76
2022/08/31 01:58:06;;;;;;;0.93;0.30;;;15.40;99.90;;;;;;5009292;28;20091;-77
2022/08/31 02:00:52;;;;;;;0.60;0.20;;;15.30;99.90;;;;;;5020180;28;20030;-77
2022/08/31 02:03:18;;;;;;;0.70;0.22;;;15.40;99.90;;;;;;5007430;28;20424;-76
2022/08/31 02:05:43;;;;;;;0.88;0.25;;;15.20;99.90;;;;;;5005497;28;20029;-77
2022/08/31 02:08:10;;;;;;;0.98;0.20;;;15.30;99.90;;;;;;5038572;28;20041;-76
2022/08/31 02:10:36;;;;;;;0.40;0.20;;;15.30;99.90;;;;;;5006326;28;20053;-76
2022/08/31 02:13:04;;;;;;;1.10;0.13;;;15.20;99.90;;;;;;5004076;28;20042;-77
2022/08/31 02:15:30;;;;;;;0.68;0.20;;;15.20;99.90;;;;;;5021279;28;20529;-77
2022/08/31 02:17:56;;;;;;;0.43;0.20;;;15.10;99.90;;;;;;5023534;28;20146;-77
2022/08/31 02:20:22;;;;;;;0.60;0.20;;;15.10;99.90;;;;;;5005489;28;20112;-76
2022/08/31 02:22:49;;;;;;;0.63;0.25;;;15.10;99.90;;;;;;5003072;28;20071;-77
2022/08/31 02:25:15;;;;;;;0.50;0.20;;;15.10;99.90;;;;;;5005379;28;20387;-76
2022/08/31 02:27:41;;;;;;;1.83;0.20;;;15.10;99.90;;;;;;5005355;28;20059;-77
2022/08/31 02:30:11;;;;;;;0.65;0.20;;;15.00;99.90;;;;;;4988655;28;20033;-76
2022/08/31 02:32:37;;;;;;;1.13;0.30;;;14.90;99.90;;;;;;5023680;28;20025;-77
2022/08/31 02:35:03;;;;;;;0.60;0.20;;;15.00;99.90;;;;;;5021888;28;20041;-77
2022/08/31 02:37:29;;;;;;;0.57;0.20;;;14.90;99.90;;;;;;5004214;28;20022;-76
2022/08/31 02:39:55;;;;;;;0.77;0.20;;;14.90;99.90;;;;;;5020732;28;20042;-76
2022/08/31 02:42:21;;;;;;;0.68;0.20;;;14.90;99.90;;;;;;5004854;28;20390;-76
2022/08/31 02:44:47;;;;;;;0.52;0.20;;;14.90;99.90;;;;;;5027874;28;20022;-77
2022/08/31 02:47:13;;;;;;;0.75;0.20;;;14.80;99.90;;;;;;5018485;28;20025;-78
2022/08/31 02:49:47;;;;;;;0.65;0.20;;;14.80;99.90;;;;;;5007521;28;20045;-77
2022/08/31 02:52:13;;;;;;;0.47;0.20;;;14.70;99.90;;;;;;5007095;28;20075;-78
2022/08/31 02:54:39;;;;;;;1.30;0.20;;;14.60;99.90;;;;;;4993479;28;20033;-77
2022/08/31 02:57:05;;;;;;;0.60;0.20;;;14.70;99.90;;;;;;5027870;28;20339;-78
2022/08/31 02:59:31;;;;;;;1.73;0.20;;;14.70;99.90;;;;;;5025299;28;20022;-77
2022/08/31 03:01:57;;;;;;;1.52;0.20;;;14.60;99.90;;;;;;5019008;28;20381;-76
2022/08/31 03:04:23;;;;;;;0.85;0.20;;;14.60;99.90;;;;;;5022201;28;20034;-76
2022/08/31 03:06:48;;;;;;;0.47;0.15;;;14.60;99.90;;;;;;5009656;28;20036;-77
2022/08/31 03:09:14;;;;;;;1.45;0.20;;;14.60;99.90;;;;;;5007327;28;20045;-76
2022/08/31 03:11:41;;;;;;;0.93;0.20;;;14.50;99.90;;;;;;4993246;28;20116;-76
2022/08/31 03:14:07;;;;;;;0.68;0.15;;;14.40;99.90;;;;;;5007551;28;20480;-76
2022/08/31 03:16:33;;;;;;;0.52;0.17;;;14.40;99.90;;;;;;5009663;28;20499;-76
2022/08/31 03:19:00;;;;;;;0.65;0.20;;;14.40;99.90;;;;;;5024490;28;20030;-76
2022/08/31 03:21:25;;;;;;;0.80;0.30;;;14.30;99.90;;;;;;4989745;28;20168;-76
2022/08/31 03:23:51;;;;;;;0.68;0.20;;;14.30;99.90;;;;;;5025062;28;20036;-76
2022/08/31 03:26:17;;;;;;;0.85;0.20;;;14.40;99.90;;;;;;5008840;28;20021;-77
2022/08/31 03:28:43;;;;;;;0.50;0.10;;;14.30;99.90;;;;;;5018097;28;20421;-76
2022/08/31 03:31:44;;;;;;;0.40;0.10;;;14.30;99.90;;;;;;5010512;28;20064;-77
2022/08/31 03:34:09;;;;;;;0.20;0.10;;;14.30;99.90;;;;;;5023234;28;20498;-77
2022/08/31 03:36:35;;;;;;;1.00;0.20;;;14.20;99.90;;;;;;5026195;28;20501;-76
2022/08/31 03:39:02;;;;;;;1.25;0.20;;;14.20;99.90;;;;;;5039378;28;20032;-76
2022/08/31 03:41:27;;;;;;;1.05;0.28;;;14.10;99.90;;;;;;5026610;28;20048;-75
2022/08/31 03:43:54;;;;;;;0.57;0.20;;;14.10;99.90;;;;;;5008049;28;20067;-77
2022/08/31 03:46:20;;;;;;;0.40;0.10;;;14.10;99.90;;;;;;5009717;28;20030;-76
2022/08/31 03:48:46;;;;;;;0.50;0.20;;;14.00;99.90;;;;;;5024111;28;20456;-77
2022/08/31 03:51:14;;;;;;;1.15;0.20;;;14.00;99.90;;;;;;5008790;28;20470;-77
2022/08/31 03:53:41;;;;;;;0.57;0.20;;;14.00;99.90;;;;;;5024586;28;20497;-77
2022/08/31 03:56:08;;;;;;;0.60;0.20;;;13.90;99.90;;;;;;5009236;28;20420;-76
2022/08/31 03:58:36;;;;;;;0.90;0.22;;;13.90;99.90;;;;;;5000627;28;20026;-76
2022/08/31 04:01:03;;;;;;;0.57;0.10;;;13.90;99.90;;;;;;5024148;28;20025;-77
2022/08/31 04:04:04;;;;;;;0.47;0.15;;;13.90;99.90;;;;;;4968005;28;20420;-76
2022/08/31 04:07:01;;;;;;;1.27;0.20;;;13.90;99.90;;;;;;4968073;28;20090;-76
2022/08/31 04:09:47;;;;;;;0.40;0.20;;;13.80;99.90;;;;;;4968303;28;20057;-77
2022/08/31 04:12:33;;;;;;;0.68;0.13;;;13.80;99.90;;;;;;4966284;28;20027;-76
2022/08/31 04:15:13;;;;;;;0.82;0.20;;;13.80;99.90;;;;;;4952144;28;20070;-77
2022/08/31 04:17:58;;;;;;;0.50;0.30;;;13.80;99.90;;;;;;4967106;28;20100;-76
2022/08/31 04:20:42;;;;;;;1.50;0.20;;;13.80;99.90;;;;;;4947223;28;20098;-77
2022/08/31 04:23:08;;;;;;;0.77;0.15;;;13.80;99.90;;;;;;4948986;28;20241;-76
2022/08/31 04:25:38;;;;;;;0.60;0.10;;;13.80;99.90;;;;;;4948402;28;20043;-77
2022/08/31 04:28:04;;;;;;;0.50;0.10;;;13.70;99.90;;;;;;4942783;28;20475;-76
2022/08/31 04:30:30;;;;;;;0.60;0.10;;;13.70;99.90;;;;;;4969149;28;20038;-77
2022/08/31 04:32:56;;;;;;;0.93;0.10;;;13.80;99.90;;;;;;4967664;28;20129;-76
2022/08/31 04:35:22;;;;;;;0.65;0.10;;;13.70;99.90;;;;;;4933702;28;20614;-77
2022/08/31 04:37:48;;;;;;;0.60;0.10;;;13.70;99.90;;;;;;4988976;28;20033;-78
2022/08/31 04:40:18;;;;;;;0.45;0.10;;;13.70;99.90;;;;;;5023631;28;20390;-76
2022/08/31 04:42:47;;;;;;;0.32;0.03;;;13.60;99.90;;;;;;5018223;28;20474;-76
2022/08/31 04:45:14;;;;;;;0.30;0.10;;;13.60;99.90;;;;;;4991403;28;20064;-77
2022/08/31 04:47:41;;;;;;;0.73;0.20;;;13.60;99.90;;;;;;5002861;28;20033;-77
2022/08/31 04:50:12;;;;;;;0.32;0.10;;;13.60;99.90;;;;;;5023960;28;20482;-77
2022/08/31 04:52:53;;;;;;;0.30;0.10;;;13.50;99.90;;;;;;5023517;28;20637;-76
2022/08/31 04:55:19;;;;;;;0.38;0.10;;;13.50;99.90;;;;;;5007523;28;20026;-77
2022/08/31 04:57:45;;;;;;;0.50;0.10;;;13.60;99.90;;;;;;5024960;28;20512;-76
2022/08/31 05:00:12;;;;;;;0.17;0.00;;;13.60;99.90;;;;;;5021671;28;20117;-76
2022/08/31 05:03:13;;;;;;;0.40;0.00;;;13.50;99.90;;;;;;4985811;28;20573;-76
2022/08/31 05:05:39;;;;;;;0.30;0.10;;;13.50;99.90;;;;;;4966630;28;20462;-76
2022/08/31 05:08:06;;;;;;;0.28;0.10;;;13.60;99.90;;;;;;4966808;28;20034;-76
2022/08/31 05:10:33;;;;;;;0.50;0.00;;;13.60;99.90;;;;;;4963632;28;20439;-75
2022/08/31 05:12:59;;;;;;;0.10;0.00;;;13.70;99.90;;;;;;4968903;28;20026;-76
2022/08/31 05:15:24;;;;;;;0.40;0.00;;;13.70;99.90;;;;;;4969012;28;20049;-76
2022/08/31 05:17:50;;;;;;;0.28;0.00;;;13.70;99.90;;;;;;4985477;28;20043;-76
2022/08/31 05:20:16;;;;;;;0.30;0.00;;;13.70;99.90;;;;;;4969236;28;20030;-76
2022/08/31 05:22:41;;;;;;;0.45;0.10;;;13.70;99.90;;;;;;4960545;28;20169;-75
2022/08/31 05:25:08;;;;;;;0.52;0.00;;;13.70;99.90;;;;;;4982060;28;20545;-75
2022/08/31 05:27:35;;;;;;;0.20;0.00;;;13.70;99.90;;;;;;4965502;28;20022;-75
2022/08/31 05:30:01;;;;;;;0.22;0.00;;;13.70;99.90;;;;;;4983761;28;20053;-76
2022/08/31 05:32:39;;;;;;;0.40;0.10;;;13.70;99.90;;;;;;4969376;28;20037;-75
2022/08/31 05:35:05;;;;;;;0.47;0.10;;;13.70;99.90;;;;;;4969376;28;20026;-75
2022/08/31 05:37:31;;;;;;;0.40;0.00;;;13.70;99.90;;;;;;5005801;28;20390;-75
2022/08/31 05:39:57;;;;;;;0.20;0.08;;;13.80;99.90;;;;;;5023266;28;20037;-76
2022/08/31 05:42:23;;;;;;;0.65;0.10;;;13.80;99.90;;;;;;5007975;28;20026;-76
2022/08/31 05:44:49;;;;;;;0.25;0.00;;;13.80;99.90;;;;;;5005207;28;20035;-76
2022/08/31 05:47:15;;;;;;;0.32;0.00;;;13.80;99.90;;;;;;5019703;28;20053;-77
2022/08/31 05:49:42;;;;;;;0.65;0.10;;;13.80;99.90;;;;;;5020302;28;20108;-76
2022/08/31 05:52:09;;;;;;;0.40;0.10;;;13.80;99.90;;;;;;5015625;28;20071;-76
2022/08/31 05:54:35;;;;;;;0.20;0.08;;;13.90;99.90;;;;;;5014317;28;20124;-76
2022/08/31 05:57:02;;;;;;;0.50;0.00;;;13.90;99.90;;;;;;5005445;28;20112;-75
2022/08/31 05:59:32;;;;;;;0.70;0.17;;;13.90;99.90;;;;;;5006023;28;20025;-75
2022/08/31 06:02:00;;;;;;;1.25;0.10;;;13.80;99.90;;;;;;5001792;28;20108;-76
2022/08/31 06:04:27;;;;;;;0.93;0.10;;;13.90;99.90;;;;;;5005956;28;20022;-75
2022/08/31 06:06:53;;;;;;;0.95;0.10;;;13.90;99.90;;;;;;5004074;28;20160;-75
2022/08/31 06:09:23;;;;;;;0.47;0.10;;;13.90;99.90;;;;;;5003780;28;20037;-76
2022/08/31 06:11:50;;;;;;;1.65;0.20;;;14.00;99.90;;;;;;5014900;28;20113;-75
2022/08/31 06:14:17;;;;;;;0.85;0.10;;;14.00;99.90;;;;;;5018762;28;20060;-75
2022/08/31 06:16:44;;;;;;;1.33;0.10;;;14.00;99.90;;;;;;5015863;28;20563;-76
2022/08/31 06:19:11;;;;;;;0.38;0.05;;;14.10;99.90;;;;;;5025035;28;20037;-75
2022/08/31 06:21:41;;;;;;;1.45;0.10;;;14.30;99.90;;;;;;5008655;28;20021;-77
2022/08/31 06:24:08;;;;;;;0.40;0.10;;;14.50;99.90;;;;;;5024961;28;20541;-76
2022/08/31 06:26:35;;;;;;;0.35;0.03;;;14.60;99.90;;;;;;5026526;28;20033;-77
2022/08/31 06:29:05;;;;;;;2.38;0.10;;;14.80;99.90;;;;;;5007997;28;20113;-78
2022/08/31 06:31:38;;;;;;;2.53;0.10;;;15.00;99.90;;;;;;5009780;28;20033;-76
2022/08/31 06:34:06;;;;;;;1.23;0.10;;;15.10;99.90;;;;;;5007162;28;20045;-75
2022/08/31 06:36:50;;;;;;;0.70;0.17;;;15.20;99.90;;;;;;5025651;28;20037;-77
2022/08/31 06:39:34;;;;;;;0.65;0.10;;;15.10;99.90;;;;;;5024505;28;20045;-76
2022/08/31 06:42:23;;;;;;;1.75;0.10;;;15.20;99.90;;;;;;5015948;28;20037;-76
2022/08/31 06:45:15;;;;;;;0.90;0.10;;;15.60;99.90;;;;;;5008409;28;20095;-76
2022/08/31 06:47:48;;;;;;;0.60;0.10;;;15.60;99.90;;;;;;5015651;28;20084;-77
2022/08/31 06:50:14;;;;;;;0.38;0.10;;;15.70;99.90;;;;;;5023407;28;20505;-77
2022/08/31 06:52:40;;;;;;;0.40;0.10;;;15.60;99.90;;;;;;5009180;28;20099;-76
2022/08/31 06:55:23;;;;;;;0.47;0.10;;;15.50;99.90;;;;;;5007618;28;20049;-75
2022/08/31 06:58:07;;;;;;;0.20;0.08;;;15.50;99.90;;;;;;5027497;28;20064;-78
2022/08/31 07:00:52;;;;;;;0.88;0.10;;;15.60;99.90;;;;;;5027726;28;20044;-76
2022/08/31 07:03:32;;;;;;;0.57;0.10;;;15.60;99.90;;;;;;5024795;28;20075;-77
2022/08/31 07:06:03;;;;;;;1.42;0.20;;;15.60;99.90;;;;;;5008631;28;20033;-75
2022/08/31 07:08:28;;;;;;;1.63;0.13;;;15.60;99.90;;;;;;5023398;28;20491;-78
2022/08/31 07:10:54;;;;;;;0.95;0.10;;;15.70;99.90;;;;;;5006532;28;20048;-76
2022/08/31 07:13:20;;;;;;;4.65;0.20;;;15.80;99.90;;;;;;5012800;28;20104;-76
2022/08/31 07:15:45;;;;;;;2.08;0.10;;;15.80;99.90;;;;;;5022617;28;20025;-76
2022/08/31 07:18:11;;;;;;;0.50;0.10;;;16.00;99.90;;;;;;5008330;28;20121;-76
2022/08/31 07:20:37;;;;;;;1.10;0.10;;;15.80;99.90;;;;;;5025382;28;20137;-76
2022/08/31 07:23:04;;;;;;;0.30;0.10;;;16.10;99.90;;;;;;5022383;28;20513;-76
2022/08/31 07:25:39;;;;;;;1.95;0.10;;;16.20;99.90;;;;;;5007666;28;20029;-76
2022/08/31 07:28:05;;;;;;;0.43;0.10;;;16.30;99.90;;;;;;5025654;28;20029;-76
2022/08/31 07:30:37;;;;;;;1.35;0.10;;;16.50;99.90;;;;;;5006457;28;20402;-75
2022/08/31 07:33:05;;;;;;;1.85;0.10;;;16.70;99.90;;;;;;5008708;28;20062;-76
2022/08/31 07:35:32;;;;;;;0.32;0.10;;;16.80;99.90;;;;;;5006682;28;20280;-76
2022/08/31 07:43:58;;;;;;;0.52;0.10;;;16.80;99.90;;;;;;5007744;28;20030;-77
2022/08/31 07:46:28;;;;;;;0.60;0.10;;;16.90;99.90;;;;;;5019940;28;20389;-76
2022/08/31 07:48:55;;;;;;;0.50;0.10;;;16.90;99.90;;;;;;5007925;28;20037;-77
2022/08/31 07:51:50;;;;;;;2.50;0.10;;;17.20;99.90;;;;;;4995622;28;20037;-78
2022/08/31 07:54:36;;;;;;;0.65;0.10;;;17.30;99.90;;;;;;5022471;28;20072;-77
2022/08/31 07:57:17;;;;;;;1.55;0.10;;;17.50;99.90;;;;;;5042233;28;20033;-77
2022/08/31 07:59:45;;;;;;;0.43;0.10;;;17.70;99.90;;;;;;5008646;28;20057;-76
2022/08/31 08:02:13;;;;;;;0.20;0.08;;;17.60;99.90;;;;;;5007127;28;20030;-78
2022/08/31 08:04:41;;;;;;;0.47;0.10;;;18.00;99.90;;;;;;5006813;28;20075;-78
2022/08/31 08:07:42;;;;;;;0.35;0.10;;;18.40;99.90;;;;;;5007191;28;20030;-79
2022/08/31 08:10:40;;;;;;;2.25;0.10;;;18.70;99.90;;;;;;5005664;28;20033;-79
2022/08/31 08:13:26;;;;;;;0.77;0.20;;;18.70;99.90;;;;;;5025683;28;20072;-76
2022/08/31 08:15:57;;;;;;;1.98;0.20;;;18.50;99.90;;;;;;5007850;28;20084;-78
2022/08/31 08:18:42;;;;;;;1.48;0.10;;;18.40;99.90;;;;;;5024618;28;20064;-78
2022/08/31 08:21:07;;;;;;;2.67;0.20;;;18.00;99.90;;;;;;5005730;28;20057;-78
2022/08/31 08:23:33;;;;;;;0.45;0.10;;;17.90;99.90;;;;;;5024566;28;20079;-76
2022/08/31 08:26:29;;;;;;;0.60;0.10;;;18.10;99.90;;;;;;5006997;28;20112;-78
2022/08/31 08:29:22;;;;;;;3.08;0.20;;;18.50;99.90;;;;;;5023183;28;20044;-76
2022/08/31 08:31:52;;;;;;;0.50;0.10;;;19.00;99.90;;;;;;5005005;28;20112;-79
2022/08/31 08:34:22;;;;;;;;;;;18.80;99.90;;;;;;5023956;28;20025;-77
2022/08/31 08:36:48;;;;;;;0.82;0.20;;;18.70;99.90;;;;;;5006196;28;20502;-77
2022/08/31 08:39:15;;;;;;;0.60;0.20;;;19.00;99.90;;;;;;5006236;28;20546;-76
2022/08/31 08:41:55;;;;;;;1.35;0.15;;;18.70;99.90;;;;;;5021196;28;20072;-76
2022/08/31 08:44:23;;;;;;;2.05;0.50;;;18.80;99.90;;;;;;5015381;28;20030;-76
2022/08/31 08:47:03;;;;;;;0.80;0.20;;;18.60;99.90;;;;;;5038120;28;20109;-77
2022/08/31 08:49:49;;;;;;;0.55;0.20;;;18.90;99.90;;;;;;5004645;28;20033;-76
2022/08/31 08:52:34;;;;;;;2.47;0.30;;;18.80;99.90;;;;;;5005936;28;20030;-78
2022/08/31 08:55:05;;;;;;;0.77;0.20;;;19.20;99.90;;;;;;5007365;28;20053;-79
2022/08/31 08:57:38;;;;;;;2.15;0.10;;;19.80;99.90;;;;;;5004763;28;20033;-76
2022/08/31 09:00:16;;;;;;;1.45;0.20;;;19.50;99.90;;;;;;5008923;28;20071;-76
2022/08/31 09:03:16;;;;;;;1.00;0.20;;;19.40;99.90;;;;;;5023073;28;20513;-76
2022/08/31 09:06:19;;;;;;;0.40;0.10;;;19.40;99.90;;;;;;5016072;28;20428;-75
2022/08/31 09:09:17;;;;;;;0.65;0.20;;;19.40;99.90;;;;;;5005471;28;20518;-78
2022/08/31 09:12:10;;;;;;;1.40;0.20;;;19.40;99.90;;;;;;5006357;28;20040;-77
2022/08/31 09:14:58;;;;;;;0.65;0.20;;;19.90;99.90;;;;;;5021608;28;20128;-75
2022/08/31 09:17:27;;;;;;;1.55;0.20;;;19.80;99.90;;;;;;5023763;28;20501;-77
2022/08/31 09:20:00;;;;;;;0.63;0.20;;;20.20;99.90;;;;;;5004989;28;20072;-76
2022/08/31 09:22:28;;;;;;;1.60;0.20;;;20.00;99.90;;;;;;5005515;28;20029;-76
2022/08/31 09:24:58;;;;;;;0.50;0.13;;;20.00;99.90;;;;;;5004836;28;20108;-77
2022/08/31 09:27:47;;;;;;;1.23;0.20;;;20.80;99.90;;;;;;5023442;28;20044;-77
2022/08/31 09:30:30;;;;;;;0.70;0.28;;;21.00;99.90;;;;;;5005395;28;20036;-77
2022/08/31 09:32:56;;;;;;;1.08;0.20;;;20.40;99.90;;;;;;5022953;28;20108;-76
2022/08/31 09:35:29;;;;;;;0.70;0.28;;;20.40;99.90;;;;;;5004569;28;20025;-77
2022/08/31 09:38:08;;;;;;;0.52;0.20;;;20.30;99.90;;;;;;5024052;28;20025;-77
2022/08/31 09:40:38;;;;;;;1.23;0.20;;;20.50;99.90;;;;;;5021026;28;20421;-76
2022/08/31 09:43:10;;;;;;;0.60;0.20;;;20.90;99.90;;;;;;5006928;28;20512;-78
2022/08/31 09:45:53;;;;;;;0.85;0.20;;;20.90;99.90;;;;;;5023352;28;20064;-77
2022/08/31 09:48:42;;;;;;;1.90;0.20;;;21.30;99.90;;;;;;5025395;28;20083;-78
2022/08/31 09:51:18;;;;;;;0.82;0.20;;;21.70;99.90;;;;;;5020926;28;20108;-76
2022/08/31 09:56:28;;;;;;;1.55;0.20;;;21.90;99.90;;;;;;5006639;28;20033;-78
2022/08/31 09:59:00;;;;;;;0.65;0.10;;;21.80;99.90;;;;;;5023841;28;20017;-78
2022/08/31 10:01:44;;;;;;;1.50;0.20;;;21.60;99.90;;;;;;5015206;28;20478;-76
2022/08/31 10:04:14;;;;;;;0.60;0.20;;;21.30;99.90;;;;;;5022833;28;20025;-77
2022/08/31 10:06:45;;;;;;;0.88;0.20;;;21.20;99.90;;;;;;5018657;28;20179;-76
2022/08/31 10:09:19;;;;;;;0.90;0.20;;;21.30;99.90;;;;;;5024211;28;20033;-77
2022/08/31 10:11:47;;;;;;;1.13;0.20;;;21.20;99.90;;;;;;5004660;28;20179;-77
2022/08/31 10:14:33;;;;;;;2.95;0.20;;;21.50;99.90;;;;;;5022921;28;20033;-79
2022/08/31 10:17:09;;;;;;;2.58;0.10;;;21.40;99.90;;;;;;5015282;28;20065;-78
2022/08/31 10:19:42;;;;;;;1.05;0.17;;;21.30;99.90;;;;;;4995927;28;20045;-78
2022/08/31 10:22:35;;;;;;;0.60;0.20;;;21.20;99.90;;;;;;5015317;28;20052;-78
2022/08/31 10:25:21;;;;;;;1.00;0.20;;;21.20;99.90;;;;;;5017295;28;20036;-77
2022/08/31 10:27:56;;;;;;;1.40;0.20;;;21.30;99.90;;;;;;5009917;28;20038;-80
2022/08/31 10:30:39;;;;;;;0.70;0.10;;;21.30;99.90;;;;;;5014749;28;20041;-76
2022/08/31 10:33:20;;;;;;;0.63;0.10;;;21.30;99.90;;;;;;5015955;28;20026;-77
2022/08/31 10:35:49;;;;;;;2.15;0.20;;;21.30;99.90;;;;;;5012545;28;20486;-76
2022/08/31 10:38:22;;;;;;;1.90;0.20;;;21.30;99.90;;;;;;5015269;28;20037;-76
2022/08/31 10:40:53;;;;;;;1.02;0.20;;;21.30;99.90;;;;;;5014778;28;20050;-77
2022/08/31 10:43:22;;;;;;;1.15;0.10;;;21.40;99.90;;;;;;4998876;28;20025;-78
2022/08/31 10:45:51;;;;;;;5.55;0.13;;;21.40;99.90;;;;;;5015772;28;20101;-78
2022/08/31 10:48:20;;;;;;;0.60;0.20;;;21.50;99.90;;;;;;5017573;28;20477;-77
2022/08/31 10:50:46;;;;;;;1.42;0.10;;;21.50;99.90;;;;;;5017717;28;20056;-79
2022/08/31 10:53:31;;;;;;;0.20;0.10;;;21.60;99.90;;;;;;4997706;28;20053;-77
2022/08/31 10:56:01;;;;;;;2.72;0.10;;;22.20;99.90;;;;;;4997149;28;20048;-78
2022/08/31 10:58:40;;;;;;;1.02;0.10;;;22.70;99.90;;;;;;5016368;28;20026;-79
2022/08/31 11:01:31;;;;;;;0.57;0.10;;;22.90;99.90;;;;;;5016160;28;20034;-77
2022/08/31 11:04:17;;;;;;;2.83;0.20;;;23.20;99.90;;;;;;5017229;28;20292;-79
2022/08/31 11:06:55;;;;;;;0.43;0.10;;;23.40;99.90;;;;;;5019664;28;20029;-76
2022/08/31 11:09:32;;;;;;;1.00;0.10;;;23.50;99.90;;;;;;5018522;28;20076;-77
2022/08/31 11:12:20;;;;;;;0.80;0.10;;;23.50;99.90;;;;;;5017540;28;20029;-76
2022/08/31 11:14:47;;;;;;;0.30;0.08;;;23.90;99.90;;;;;;5019497;28;20129;-77
2022/08/31 11:17:37;;;;;;;0.60;0.10;;;23.80;99.90;;;;;;4998904;28;20044;-77
2022/08/31 11:20:44;;;;;;;0.52;0.10;;;24.00;99.90;;;;;;5018242;28;20402;-78
2022/08/31 11:23:47;;;;;;;0.75;0.30;;;23.90;99.90;;;;;;4985419;28;20145;-76
2022/08/31 11:26:39;;;;;;;0.82;0.10;;;24.30;99.90;;;;;;4925301;29;20043;-79
2022/08/31 11:29:27;;;;;;;0.73;0.10;;;24.30;99.90;;;;;;4925765;29;20114;-78
2022/08/31 11:31:56;;;;;;;0.40;0.10;;;24.20;99.90;;;;;;4942180;29;20067;-76
2022/08/31 11:34:27;;;;;;;1.20;0.15;;;23.70;99.90;;;;;;4926982;29;20753;-79
2022/08/31 11:36:56;;;;;;;1.33;0.10;;;23.70;99.90;;;;;;4942544;29;20083;-76
2022/08/31 11:39:43;;;;;;;0.88;0.10;;;23.90;99.90;;;;;;4926341;29;20027;-76
2022/08/31 11:42:36;;;;;;;0.57;0.15;;;23.30;99.90;;;;;;4926198;29;20047;-76
2022/08/31 11:45:25;;;;;;;1.25;0.17;;;23.50;99.90;;;;;;4926055;29;20066;-76
2022/08/31 11:47:53;;;;;;;0.47;0.20;;;23.40;99.90;;;;;;4925657;29;20036;-76
2022/08/31 11:50:22;;;;;;;0.40;0.10;;;23.20;99.90;;;;;;4926650;29;20039;-76
2022/08/31 11:52:52;;;;;;;1.17;0.20;;;23.80;99.90;;;;;;4925963;29;20032;-77
2022/08/31 11:55:25;;;;;;;0.52;0.10;;;24.00;99.90;;;;;;4926691;29;20118;-79
2022/08/31 11:58:06;;;;;;;0.50;0.17;;;24.30;99.90;;;;;;4925787;29;20035;-77
2022/08/31 12:00:50;;;;;;;1.50;0.20;;;24.10;99.90;;;;;;4925572;29;20035;-79
2022/08/31 12:03:42;;;;;;;0.60;0.10;;;24.50;99.90;;;;;;5018187;28;20470;-75
2022/08/31 12:06:28;;;;;;;2.15;0.20;;;24.30;99.90;;;;;;5017758;28;20409;-75
2022/08/31 12:09:10;;;;;;;1.45;0.10;;;24.20;99.90;;;;;;4972992;28;20441;-75
2022/08/31 12:11:48;;;;;;;0.50;0.10;;;24.30;99.90;;;;;;5016892;28;20034;-76
2022/08/31 12:14:36;;;;;;;1.73;0.20;;;24.10;99.90;;;;;;5016061;28;20509;-77
2022/08/31 12:17:11;;;;;;;1.02;0.28;;;24.30;99.90;;;;;;4999286;28;20175;-78
2022/08/31 12:20:06;;;;;;;0.60;0.13;;;24.10;99.90;;;;;;5017537;28;20043;-76
2022/08/31 12:26:08;;;;;;;1.50;0.10;;;24.70;99.90;;;;;;5018795;28;20334;-76
2022/08/31 12:29:11;;;;;;;1.27;0.20;;;25.30;99.90;;;;;;5017744;28;20050;-77
2022/08/31 12:31:39;;;;;;;0.70;0.20;;;25.20;99.90;;;;;;5014144;28;20102;-79
2022/08/31 12:34:18;;;;;;;0.55;0.20;;;25.30;99.90;;;;;;5017061;28;20030;-77
2022/08/31 12:36:44;;;;;;;1.27;0.20;;;25.30;99.90;;;;;;5018162;28;20084;-79
2022/08/31 12:39:19;;;;;;;0.57;0.20;;;25.20;99.90;;;;;;5004409;28;20427;-79
2022/08/31 12:41:58;;;;;;;1.80;0.20;;;25.00;99.90;;;;;;5018164;28;20366;-76
2022/08/31 12:44:35;;;;;;;1.20;0.20;;;25.00;99.90;;;;;;5019066;28;20025;-77
2022/08/31 12:47:21;;;;;;;0.70;0.20;;;25.20;99.90;;;;;;5018788;28;20029;-78
2022/08/31 12:49:52;;;;;;;1.17;0.20;;;25.10;99.90;;;;;;4998212;28;20076;-78
2022/08/31 12:52:34;;;;;;;0.30;0.17;;;25.10;99.90;;;;;;5018102;28;20025;-79
2022/08/31 12:55:11;;;;;;;1.00;0.10;;;25.30;99.90;;;;;;5017479;28;20168;-77
2022/08/31 12:57:49;;;;;;;1.27;0.20;;;25.10;99.90;;;;;;5018546;28;20037;-76
2022/08/31 13:00:21;;;;;;;0.85;0.20;;;25.30;99.90;;;;;;5017090;28;20045;-76
2022/08/31 13:02:50;;;;;;;1.88;0.20;;;25.50;99.90;;;;;;5017359;28;20367;-76
2022/08/31 13:05:26;;;;;;;0.33;0.10;;;25.20;99.90;;;;;;5015804;28;20093;-76
2022/08/31 13:07:52;;;;;;;1.15;0.10;;;25.50;99.90;;;;;;5010634;28;20112;-76
2022/08/31 13:10:20;;;;;;;0.40;0.10;;;25.60;99.90;;;;;;5011717;28;20423;-76
2022/08/31 13:12:49;;;;;;;0.47;0.20;;;26.00;99.90;;;;;;5016174;28;20022;-76
2022/08/31 13:15:23;;;;;;;1.95;0.20;;;25.70;99.90;;;;;;5016825;28;20068;-79
2022/08/31 13:17:49;;;;;;;0.43;0.10;;;25.80;99.90;;;;;;5018306;28;20096;-76
2022/08/31 13:20:19;;;;;;;0.70;0.20;;;25.80;99.90;;;;;;5017283;28;20494;-78
2022/08/31 13:22:47;;;;;;;0.80;0.32;;;25.60;99.90;;;;;;5016527;28;20470;-80
2022/08/31 13:25:28;;;;;;;3.15;0.30;;;25.40;99.90;;;;;;5013734;28;20076;-76
2022/08/31 13:27:54;;;;;;;1.63;0.20;;;25.60;99.90;;;;;;5014227;28;20477;-78
2022/08/31 13:30:21;;;;;;;1.10;0.20;;;25.20;99.90;;;;;;5016508;28;20037;-78
2022/08/31 13:32:53;;;;;;;0.32;0.20;;;25.30;99.90;;;;;;5017025;28;20075;-77